Ryanair Sun B738 at Katowice on Feb 1st 2022, runway excursion after landing

Last Update: February 2, 2022 / 11:11:59 GMT/Zulu time

Bookmark this article
Incident Facts

Date of incident
Feb 1, 2022

Classification
Incident

Flight number
FR-6869

Destination
Katowice, Poland

Aircraft Registration
SP-RSB

Aircraft Type
Boeing 737-800

ICAO Type Designator
B738

Airport ICAO Code
EPKT

A Ryanair Sun Boeing 737-800, registration SP-RSB performing flight FR-6869 from Cologne (Germany) to Katowice (Poland), had landed on Katowice's runway 27 and slowed to taxi speed at 23:57L (22:57Z). While approach the last turn off the runway the aircraft departed paved surface and became disabled. There were no injuries, the aircraft sustained minor if any damage.

The runway was closed for about 5 hours until the aircraft could be towed off the runway as result.

Related NOTAM:
H0184/22 NOTAMN
Q) EPWW/QMRLC/IV/NBO/A /000/999/5028N01905E005
A) EPKT B) 2202012350 C) 2202020100 EST
E) RWY 09/27 CLSD DUE TO TECR.

Metars:
EPKT 020100Z 23014KT 5000 -SN BR SCT002 OVC003 00/M00 Q0996 RESN=
EPKT 020030Z 22012KT 1800 +SN BR BKN002 OVC004 00/M00 Q0996=
EPKT 020000Z 24014KT 8000 -SN SCT003 OVC004 00/M00 Q0996 RESN=
EPKT 012330Z 22014KT 1200 R27/1800N SN BR BKN002 OVC005 00/M00 Q0996 RESN=
EPKT 012300Z 22015KT 1400 R27/1700 +SN BR SCT001 SCT003 OVC004 00/M00 Q0996=
EPKT 012230Z 23014KT 1300 R27/1900 +SN BR BKN002 OVC004 00/M00 Q0997=
EPKT 012200Z 22013KT 2000 SN BR SCT002 BKN003 BKN004 M00/M01 Q0997 RESN=
EPKT 012130Z 21014KT 1800 SN BR BKN002 OVC005 M00/M01 Q0997 RESN=
EPKT 012100Z 21014KT 0500 R27/1600N +SN SCT002 BKN006 OVC007 M00/M01 Q0998=
EPKT 012030Z 21015KT 1500 +SN BR FEW002 SCT005 BKN010 M00/M01 Q0999=
EPKT 012000Z 21015KT 4300 -SN BR FEW010 BKN021 BKN024 00/M01 Q0999 RESN=
Incident Facts

Date of incident
Feb 1, 2022

Classification
Incident

Flight number
FR-6869

Destination
Katowice, Poland

Aircraft Registration
SP-RSB

Aircraft Type
Boeing 737-800

ICAO Type Designator
B738

Airport ICAO Code
EPKT

This article is published under license from Avherald.com. © of text by Avherald.com.
Article source

You can read 2 more free articles without a subscription.

Subscribe now and continue reading without any limits!

Are you a subscriber? Login
Subscribe

Read unlimited articles and receive our daily update briefing. Gain better insights into what is happening in commercial aviation safety.

Free newsletter

Want to know more and stay ahead? Get our free weekly newsletter and join 5384 existing subscribers.

By subscribing, you accept our terms and conditions and confirm that you've read our privacy policy.

Send tip

Support AeroInside by sending a small tip amount.

Related articles

Newest articles

Subscribe today

Are you researching aviation incidents? Get access to AeroInside Insights, unlimited read access and receive the daily newsletter.

Pick your plan and subscribe

Partner

Blockaviation logo

A new way to document and demonstrate airworthiness compliance and aircraft value. Find out more.

Virtual Speech logo

ELITE Simulation Solutions is a leading global provider of Flight Simulation Training Devices, IFR training software as well as flight controls and related services. Find out more.

Get updates

Never miss an article from AeroInside. Subscribe to our free weekly newsletter and join 5384 existing subscribers.

By subscribing, you accept our terms and conditions and that you've read our privacy policy.

AeroInside Blog
Popular aircraft
Airbus A320
Boeing 737-800
Boeing 737-800 MAX
Popular airlines
American Airlines
United
Delta
Air Canada
Lufthansa
British Airways